createdAt,value
2022-12-17T00:01:37.085Z,2.08
2022-12-17T00:04:22.000Z,2.05
2022-12-17T00:07:06.932Z,2.02
2022-12-17T00:09:52.166Z,2.02
2022-12-17T00:12:37.107Z,2.00
2022-12-17T00:15:21.895Z,1.99
2022-12-17T00:18:07.114Z,1.97
2022-12-17T00:20:51.998Z,1.96
2022-12-17T00:23:37.500Z,1.94
2022-12-17T00:26:22.934Z,1.93
2022-12-17T00:29:07.744Z,1.92
2022-12-17T00:31:52.856Z,1.90
2022-12-17T00:34:41.561Z,1.90
2022-12-17T00:37:26.438Z,1.90
2022-12-17T00:40:11.698Z,1.89
2022-12-17T00:42:56.485Z,1.89
2022-12-17T00:45:41.647Z,1.90
2022-12-17T00:48:26.618Z,1.89
2022-12-17T00:51:13.735Z,1.88
2022-12-17T00:53:59.027Z,1.88
2022-12-17T00:56:43.959Z,1.89
2022-12-17T00:59:29.262Z,1.89
2022-12-17T01:02:14.292Z,1.89
2022-12-17T01:04:59.500Z,1.90
2022-12-17T01:07:44.523Z,1.88
2022-12-17T01:10:29.446Z,1.89
2022-12-17T01:13:14.700Z,1.87
2022-12-17T01:15:59.596Z,1.87
2022-12-17T01:18:44.619Z,1.85
2022-12-17T01:21:29.608Z,1.84
2022-12-17T01:24:14.491Z,1.82
2022-12-17T01:26:59.619Z,1.82
2022-12-17T01:29:44.448Z,1.80
2022-12-17T01:32:29.401Z,1.77
2022-12-17T01:35:14.511Z,1.77
2022-12-17T01:37:59.505Z,1.76
2022-12-17T01:40:44.591Z,1.75
2022-12-17T01:43:32.675Z,1.73
2022-12-17T01:46:17.952Z,1.72
2022-12-17T01:49:05.451Z,1.70
2022-12-17T01:51:50.973Z,1.67
2022-12-17T01:54:37.068Z,1.66
2022-12-17T01:57:22.763Z,1.61
2022-12-17T02:00:11.196Z,1.57
2022-12-17T02:02:56.444Z,1.53
2022-12-17T02:05:49.841Z,1.46
2022-12-17T02:08:44.244Z,1.41
2022-12-17T02:11:47.551Z,1.35
2022-12-17T02:14:55.702Z,1.29
2022-12-17T02:18:03.849Z,1.24
2022-12-17T02:20:50.032Z,1.20
2022-12-17T02:23:54.094Z,1.15
2022-12-17T02:27:02.449Z,1.09
2022-12-17T02:29:49.705Z,1.01
2022-12-17T02:32:36.509Z,0.96
2022-12-17T02:35:23.451Z,0.91
2022-12-17T02:38:08.444Z,0.87
2022-12-17T02:40:54.745Z,0.83
2022-12-17T02:43:43.430Z,0.76
2022-12-17T02:46:28.344Z,0.72
2022-12-17T02:49:13.272Z,0.68
2022-12-17T02:51:59.165Z,0.63
2022-12-17T02:54:48.189Z,0.58
2022-12-17T02:57:33.365Z,0.55
2022-12-17T03:00:18.273Z,0.51
2022-12-17T03:03:03.398Z,0.47
2022-12-17T03:05:48.634Z,0.44
2022-12-17T03:08:33.518Z,0.41
2022-12-17T03:11:18.698Z,0.39
2022-12-17T03:14:03.612Z,0.37
2022-12-17T03:16:48.844Z,0.35
2022-12-17T03:19:34.165Z,0.31
2022-12-17T03:22:19.016Z,0.29
2022-12-17T03:25:04.068Z,0.26
2022-12-17T03:27:48.935Z,0.26
2022-12-17T03:30:36.339Z,0.22
2022-12-17T03:33:22.713Z,0.22
2022-12-17T03:36:11.210Z,0.21
2022-12-17T03:38:56.427Z,0.19
2022-12-17T03:41:41.252Z,0.18
2022-12-17T03:44:25.999Z,0.16
2022-12-17T03:47:11.301Z,0.15
2022-12-17T03:49:56.299Z,0.14
2022-12-17T03:52:41.258Z,0.13
2022-12-17T03:55:26.252Z,0.12
2022-12-17T03:58:11.591Z,0.12
2022-12-17T04:00:56.547Z,0.13
2022-12-17T04:03:41.471Z,0.14
2022-12-17T04:06:26.663Z,0.14
2022-12-17T04:09:11.491Z,0.16
2022-12-17T04:11:56.747Z,0.16
2022-12-17T04:14:41.565Z,0.14
2022-12-17T04:17:26.893Z,0.15
2022-12-17T04:20:11.820Z,0.16
2022-12-17T04:22:56.820Z,0.15
2022-12-17T04:25:42.087Z,0.16
2022-12-17T04:28:26.891Z,0.13
2022-12-17T04:31:12.165Z,0.12
2022-12-17T04:33:57.103Z,0.10
2022-12-17T04:36:42.075Z,0.07
2022-12-17T04:39:27.271Z,0.04
2022-12-17T04:42:12.207Z,0.02
2022-12-17T04:44:57.352Z,-0.01
2022-12-17T04:47:42.098Z,-0.02
2022-12-17T04:50:37.597Z,-0.03
2022-12-17T04:53:23.449Z,-0.04
2022-12-17T04:56:08.400Z,-0.03
2022-12-17T04:58:56.592Z,-0.03
2022-12-17T05:01:41.686Z,-0.04
2022-12-17T05:04:26.910Z,-0.06
2022-12-17T05:07:11.751Z,-0.07
2022-12-17T05:09:57.027Z,-0.06
2022-12-17T05:12:42.007Z,-0.07
2022-12-17T05:15:26.940Z,-0.09
2022-12-17T05:18:12.008Z,-0.10
2022-12-17T05:20:56.864Z,-0.10
2022-12-17T05:23:41.724Z,-0.12
2022-12-17T05:26:36.914Z,-0.11
2022-12-17T05:29:22.305Z,-0.13
2022-12-17T05:32:08.107Z,-0.15
2022-12-17T05:34:52.899Z,-0.16
2022-12-17T05:37:39.264Z,-0.19
2022-12-17T05:40:24.468Z,-0.21
2022-12-17T05:43:16.484Z,-0.24
2022-12-17T05:46:01.866Z,-0.26
2022-12-17T05:48:47.141Z,-0.29
2022-12-17T05:51:37.039Z,-0.30
2022-12-17T05:54:23.641Z,-0.32
2022-12-17T05:57:08.485Z,-0.33
2022-12-17T05:59:53.682Z,-0.34
2022-12-17T06:02:38.616Z,-0.36
2022-12-17T06:05:24.149Z,-0.39
2022-12-17T06:08:09.165Z,-0.39
2022-12-17T06:10:54.087Z,-0.40
2022-12-17T06:13:39.105Z,-0.41
2022-12-17T06:16:24.024Z,-0.44
2022-12-17T06:19:09.272Z,-0.45
2022-12-17T06:21:54.342Z,-0.47
2022-12-17T06:24:42.727Z,-0.50
2022-12-17T06:27:35.239Z,-0.49
2022-12-17T06:30:20.053Z,-0.23
2022-12-17T06:33:05.260Z,0.23
2022-12-17T06:35:50.127Z,0.81
2022-12-17T06:38:35.125Z,1.48
2022-12-17T06:41:20.877Z,2.16
2022-12-17T06:44:06.027Z,2.83
2022-12-17T06:46:51.343Z,3.45
2022-12-17T06:49:36.501Z,3.95
2022-12-17T06:52:21.545Z,4.27
2022-12-17T06:55:06.750Z,4.39
2022-12-17T06:57:51.723Z,4.37
2022-12-17T07:00:36.963Z,4.24
2022-12-17T07:03:22.027Z,4.06
2022-12-17T07:06:07.115Z,3.83
2022-12-17T07:08:51.891Z,3.61
2022-12-17T07:11:37.268Z,3.50
2022-12-17T07:14:22.505Z,3.43
2022-12-17T07:17:07.815Z,3.44
2022-12-17T07:19:52.719Z,3.48
2022-12-17T07:22:37.563Z,3.48
2022-12-17T07:25:22.792Z,3.43
2022-12-17T07:28:14.361Z,3.30
2022-12-17T07:30:59.512Z,3.12
2022-12-17T07:33:45.008Z,2.93
2022-12-17T07:36:29.980Z,2.71
2022-12-17T07:39:14.950Z,2.49
2022-12-17T07:41:59.779Z,2.29
2022-12-17T07:44:46.413Z,2.07
2022-12-17T07:47:31.360Z,1.86
2022-12-17T07:50:16.164Z,1.68
2022-12-17T07:53:01.500Z,1.51
2022-12-17T07:55:46.273Z,1.37
2022-12-17T07:58:31.335Z,1.25
2022-12-17T08:01:19.646Z,1.17
2022-12-17T08:04:04.901Z,1.11
2022-12-17T08:06:50.119Z,1.06
2022-12-17T08:09:35.090Z,1.02
2022-12-17T08:12:20.175Z,0.98
2022-12-17T08:15:05.306Z,0.96
2022-12-17T08:17:50.101Z,0.96
2022-12-17T08:20:35.222Z,0.97
2022-12-17T08:23:21.278Z,1.01
2022-12-17T08:26:06.239Z,1.08
2022-12-17T08:28:51.556Z,1.16
2022-12-17T08:31:36.793Z,1.26
2022-12-17T08:34:21.986Z,1.35
2022-12-17T08:37:06.813Z,1.47
2022-12-17T08:39:51.602Z,1.57
2022-12-17T08:42:36.760Z,1.69
2022-12-17T08:45:21.660Z,1.81
2022-12-17T08:48:06.673Z,1.94
2022-12-17T08:50:51.705Z,2.09
2022-12-17T08:53:37.113Z,2.28
2022-12-17T08:56:22.545Z,2.45
2022-12-17T08:59:07.432Z,2.65
2022-12-17T09:01:52.823Z,2.85
2022-12-17T09:04:37.894Z,3.04
2022-12-17T09:07:22.677Z,3.22
2022-12-17T09:10:07.876Z,3.44
2022-12-17T09:12:52.773Z,3.63
2022-12-17T09:15:37.850Z,3.84
2022-12-17T09:18:22.962Z,4.04
2022-12-17T09:21:14.406Z,4.23
2022-12-17T09:23:59.660Z,4.45
2022-12-17T09:26:44.555Z,4.67
2022-12-17T09:29:29.705Z,4.87
2022-12-17T09:32:14.657Z,5.07
2022-12-17T09:34:59.490Z,5.28
2022-12-17T09:37:44.594Z,5.44
2022-12-17T09:40:34.685Z,5.62
2022-12-17T09:43:25.378Z,5.76
2022-12-17T09:46:32.074Z,5.84
2022-12-17T09:49:21.899Z,5.90
2022-12-17T09:52:07.114Z,5.94
2022-12-17T09:55:00.954Z,5.98
2022-12-17T09:57:51.793Z,6.05
2022-12-17T10:00:41.946Z,6.07
2022-12-17T10:03:33.026Z,6.10
2022-12-17T10:06:22.812Z,6.13
2022-12-17T10:09:12.097Z,6.15
2022-12-17T10:11:59.947Z,6.17
2022-12-17T10:14:44.709Z,6.21
2022-12-17T10:17:34.226Z,6.26
2022-12-17T10:20:19.942Z,6.30
2022-12-17T10:23:06.662Z,6.34
2022-12-17T10:26:11.943Z,6.34
2022-12-17T10:28:56.849Z,6.33
2022-12-17T10:31:44.870Z,6.33
2022-12-17T10:34:34.309Z,6.32
2022-12-17T10:37:19.534Z,6.28
2022-12-17T10:40:13.807Z,6.23
2022-12-17T10:42:59.043Z,6.17
2022-12-17T10:45:45.391Z,6.13
2022-12-17T10:48:36.344Z,6.06
2022-12-17T10:51:22.059Z,5.99
2022-12-17T10:54:08.379Z,5.94
2022-12-17T10:56:53.443Z,5.87
2022-12-17T10:59:54.396Z,5.82
2022-12-17T11:02:44.497Z,5.76
2022-12-17T11:05:59.240Z,5.70
2022-12-17T11:08:45.007Z,5.65
2022-12-17T11:11:30.508Z,5.60
2022-12-17T11:14:16.691Z,5.56
2022-12-17T11:17:27.947Z,5.51
2022-12-17T11:20:19.684Z,5.48
2022-12-17T11:23:09.378Z,5.47
2022-12-17T11:26:08.770Z,5.51
2022-12-17T11:28:54.100Z,5.58
2022-12-17T11:31:48.202Z,5.72
2022-12-17T11:34:47.472Z,5.87
2022-12-17T11:37:32.255Z,5.97
2022-12-17T11:40:20.453Z,6.06
2022-12-17T11:43:17.077Z,6.16
2022-12-17T11:46:21.174Z,6.28
2022-12-17T11:49:09.152Z,6.41
2022-12-17T11:52:06.232Z,6.51
2022-12-17T11:54:57.099Z,6.64
2022-12-17T11:57:48.691Z,6.79
2022-12-17T12:00:42.109Z,6.91
2022-12-17T12:03:43.600Z,7.05
2022-12-17T12:06:35.376Z,7.18
2022-12-17T12:09:23.594Z,7.32
2022-12-17T12:12:11.588Z,7.44
2022-12-17T12:15:15.720Z,7.57
2022-12-17T12:18:09.880Z,7.69
2022-12-17T12:21:19.172Z,7.80
2022-12-17T12:24:11.751Z,7.90
2022-12-17T12:27:06.754Z,7.97
2022-12-17T12:29:51.682Z,8.05
2022-12-17T12:32:40.071Z,8.11
2022-12-17T12:35:31.146Z,8.17
2022-12-17T12:38:16.598Z,8.21
2022-12-17T12:41:13.437Z,8.26
2022-12-17T12:44:02.874Z,8.29
2022-12-17T12:47:00.065Z,8.33
2022-12-17T12:49:52.126Z,8.38
2022-12-17T12:52:39.546Z,8.45
2022-12-17T12:55:24.498Z,8.49
2022-12-17T12:58:18.592Z,8.55
2022-12-17T13:01:06.837Z,8.59
2022-12-17T13:04:04.477Z,8.65
2022-12-17T13:06:50.635Z,8.71
2022-12-17T13:09:22.639Z,8.79
2022-12-17T13:11:50.872Z,8.85
2022-12-17T13:14:20.682Z,8.88
2022-12-17T13:16:47.117Z,8.90
2022-12-17T13:19:21.348Z,8.91
2022-12-17T13:21:47.754Z,8.93
2022-12-17T13:24:24.493Z,8.95
2022-12-17T13:26:50.931Z,8.98
2022-12-17T13:29:17.528Z,9.00
2022-12-17T13:31:50.753Z,9.03
2022-12-17T13:34:23.494Z,9.09
2022-12-17T13:37:08.346Z,9.15
2022-12-17T13:39:47.293Z,9.22
2022-12-17T13:42:18.154Z,9.31
2022-12-17T13:44:45.811Z,9.40
2022-12-17T13:47:22.868Z,9.48
2022-12-17T13:50:24.380Z,9.54
2022-12-17T13:52:39.628Z,9.61
2022-12-17T13:55:07.501Z,9.66
2022-12-17T13:57:36.171Z,9.73
2022-12-17T14:00:03.355Z,9.80
2022-12-17T14:02:31.469Z,9.87
2022-12-17T14:05:02.822Z,9.95
2022-12-17T14:07:34.992Z,10.02
2022-12-17T14:10:02.731Z,10.08
2022-12-17T14:12:30.071Z,10.10
2022-12-17T14:14:58.627Z,10.11
2022-12-17T14:17:38.156Z,10.09
2022-12-17T14:20:11.265Z,10.09
2022-12-17T14:22:39.686Z,10.06
2022-12-17T14:25:13.364Z,10.04
2022-12-17T14:27:41.396Z,9.98
2022-12-17T14:30:26.628Z,9.90
2022-12-17T14:32:53.779Z,9.79
2022-12-17T14:35:27.501Z,9.68
2022-12-17T14:37:54.066Z,9.56
2022-12-17T14:40:21.124Z,9.45
2022-12-17T14:42:47.979Z,9.35
2022-12-17T14:45:14.327Z,9.25
2022-12-17T14:47:40.970Z,9.16
2022-12-17T14:50:23.403Z,9.05
2022-12-17T14:52:53.139Z,8.95
2022-12-17T14:55:22.768Z,8.86
2022-12-17T14:57:49.631Z,8.73
2022-12-17T15:00:16.121Z,8.62
2022-12-17T15:02:43.950Z,8.50
2022-12-17T15:05:14.600Z,8.35
2022-12-17T15:07:41.207Z,8.23
2022-12-17T15:10:12.108Z,8.09
2022-12-17T15:12:40.509Z,7.94
2022-12-17T15:15:07.157Z,7.81
2022-12-17T15:17:33.569Z,7.66
2022-12-17T15:19:59.897Z,7.51
2022-12-17T15:22:26.265Z,7.36
2022-12-17T15:24:52.617Z,7.22
2022-12-17T15:27:19.081Z,7.09
2022-12-17T15:29:46.002Z,6.97
2022-12-17T15:32:22.594Z,6.85
2022-12-17T15:34:49.269Z,6.75
2022-12-17T15:37:17.765Z,6.66
2022-12-17T15:39:49.488Z,6.56
2022-12-17T15:42:41.809Z,6.47
2022-12-17T15:45:08.741Z,6.34
2022-12-17T15:47:35.122Z,6.24
2022-12-17T15:50:01.631Z,6.14
2022-12-17T15:52:28.317Z,6.05
2022-12-17T15:54:54.658Z,5.95
2022-12-17T15:57:21.083Z,5.87
2022-12-17T15:59:47.462Z,5.80
2022-12-17T16:02:14.027Z,5.70
2022-12-17T16:04:41.125Z,5.63
2022-12-17T16:07:07.687Z,5.56
2022-12-17T16:09:34.078Z,5.50
2022-12-17T16:12:00.458Z,5.45
2022-12-17T16:14:26.847Z,5.37
2022-12-17T16:16:53.511Z,5.34
2022-12-17T16:19:23.003Z,5.27
2022-12-17T16:21:49.664Z,5.21
2022-12-17T16:24:16.046Z,5.15
2022-12-17T16:26:42.431Z,5.08
2022-12-17T16:29:08.918Z,5.02
2022-12-17T16:31:35.750Z,4.95
2022-12-17T16:34:02.291Z,4.88
2022-12-17T16:36:28.863Z,4.80
2022-12-17T16:38:55.326Z,4.75
2022-12-17T16:41:22.458Z,4.70
2022-12-17T16:43:48.942Z,4.65
2022-12-17T16:46:26.452Z,4.58
